Radville, Canada
Current Conditions -  °F | °C
As of 10:55 PM on Saturday 22 Nov 2014 (Local Time) from KD50 Reporting Station
Clear Clear  
Wind Chill: 24°   Ceiling: Unl
Heat Index: 34°   Visibility: 10mi
Dew Point: 28°   Wind: 16mph
Humidity: 81%   Direction: 230°SW
Pressure: 29.23"   Gusts: NA
Location:  49.47°N, 104.28°W
Report Text: KD50 230455Z AUTO 23014KT 10SM CLR 01/M02 A2923 RMK AO2
Loading
Personal Weather Stations






























Interactive Weather Map New forecast layout! Learn more

10-Day Weather Forecast

Advertisements
Track Severe Weather on mobile